Main page
METAR-TAF:

METAR-TAF

Airports :

Gwadar International Airport

Gwadar, Pakistan

latitude: 25-13-59N, longitude: 062-19-46E, elevation: 29 m

METAR: missing

Time: 23:12 (18:12 UTC)

Forecast

The report was made 2 hours and 12 minutes ago, at 16:00 UTC
Forecast valid from 27 at 18 UTC to 28 at 18 UTC
Wind 10 kt from the North/Northeast
Visibility: 4000 m
haze
Temporary
from 28 at 00 UTC to 28 at 04 UTC
Wind 6 kt from the North
Visibility: 2000 m
smoke
From UTC
Wind 5 kt from the North/Northwest with gusts up to 15 kt
Visibility: 6000 m
From UTC
Wind 5 kt from the West with gusts up to 15 kt
Visibility: 6000 m

TAF: OPGD 271600Z 2718/2818 03010KT 4000 HZ NSC TEMPO 2800/2804 36006KT 2000 FU NSC FM 280600Z 33005G15KT 6000 NSC FM 281200Z 26005G15KT 6000 NSC

Weather observations and forecasts of more than 4000 airports (METAR and TAF reports).

The available stations are represented by yellow and red dots on the map.

Hover mouse over dot to see the name of the station.

Then click to see weather observations and forecasts.

To change the map : click on the green buttons with a black cross to zoom in, on the green button with a dash to zoom out, or on the green arrows for adjacent maps.


METAR-TAF: